createdAt,value
2023-03-26T00:00:20.014Z,100902.22
2023-03-26T00:02:25.061Z,100902.19
2023-03-26T00:04:33.946Z,100901.34
2023-03-26T00:06:41.943Z,100914.34
2023-03-26T00:08:50.280Z,100902.91
2023-03-26T00:10:55.243Z,100906.44
2023-03-26T00:13:00.102Z,100901.13
2023-03-26T00:15:04.907Z,100905.50
2023-03-26T00:17:10.386Z,100896.78
2023-03-26T00:19:15.699Z,100888.06
2023-03-26T00:21:26.401Z,100880.22
2023-03-26T00:23:37.875Z,100878.50
2023-03-26T00:25:43.694Z,100881.97
2023-03-26T00:27:49.786Z,100875.84
2023-03-26T00:29:56.491Z,100867.94
2023-03-26T00:32:01.221Z,100868.81
2023-03-26T00:34:06.034Z,100862.75
2023-03-26T00:36:14.907Z,100860.13
2023-03-26T00:38:22.596Z,100855.72
2023-03-26T00:40:27.398Z,100861.06
2023-03-26T00:42:32.816Z,100851.56
2023-03-26T00:44:37.575Z,100853.38
2023-03-26T00:46:42.888Z,100848.16
2023-03-26T00:48:48.370Z,100854.28
2023-03-26T00:50:53.704Z,100843.91
2023-03-26T00:52:59.072Z,100835.19
2023-03-26T00:55:06.605Z,100836.13
2023-03-26T00:57:20.211Z,100830.91
2023-03-26T00:59:32.142Z,100826.53
2023-03-26T01:01:36.869Z,100825.69
2023-03-26T01:03:53.198Z,100819.69
2023-03-26T01:06:11.185Z,100824.22
2023-03-26T01:08:22.872Z,100834.69
2023-03-26T01:10:38.833Z,100827.84
2023-03-26T01:12:44.306Z,100824.41
2023-03-26T01:14:51.187Z,100828.88
2023-03-26T01:16:58.182Z,100815.16
2023-03-26T01:19:03.165Z,100816.00
2023-03-26T01:21:09.934Z,100813.56
2023-03-26T01:23:15.964Z,100806.66
2023-03-26T01:25:26.184Z,100806.00
2023-03-26T01:27:43.164Z,100798.28
2023-03-26T01:29:54.312Z,100790.56
2023-03-26T01:32:10.073Z,100796.78
2023-03-26T01:34:24.961Z,100785.50
2023-03-26T01:36:38.857Z,100774.97
2023-03-26T01:38:48.940Z,100775.66
2023-03-26T01:41:02.750Z,100775.78
2023-03-26T01:43:14.504Z,100770.81
2023-03-26T01:45:23.986Z,100775.28
2023-03-26T01:47:29.266Z,100768.47
2023-03-26T01:49:34.766Z,100765.94
2023-03-26T01:51:39.744Z,100764.13
2023-03-26T01:53:46.939Z,100760.66
2023-03-26T01:56:04.548Z,100762.53
2023-03-26T01:58:16.263Z,100763.56
2023-03-26T02:00:26.163Z,100757.59
2023-03-26T02:02:38.991Z,100758.41
2023-03-26T02:04:53.581Z,100753.38
2023-03-26T02:07:05.918Z,100751.63
2023-03-26T02:09:18.542Z,100763.84
2023-03-26T02:11:34.765Z,100749.59
2023-03-26T02:13:41.090Z,100746.91
2023-03-26T02:15:58.278Z,100746.72
2023-03-26T02:18:04.258Z,100748.28
2023-03-26T02:20:12.096Z,100738.69
2023-03-26T02:22:18.047Z,100733.22
2023-03-26T02:24:23.565Z,100731.47
2023-03-26T02:26:34.048Z,100729.72
2023-03-26T02:28:41.831Z,100724.47
2023-03-26T02:30:47.673Z,100728.88
2023-03-26T02:32:52.550Z,100721.13
2023-03-26T02:34:57.437Z,100723.66
2023-03-26T02:37:02.962Z,100721.88
2023-03-26T02:39:07.662Z,100721.78
2023-03-26T02:41:12.513Z,100713.94
2023-03-26T02:43:19.826Z,100709.63
2023-03-26T02:45:24.544Z,100703.53
2023-03-26T02:47:29.331Z,100700.06
2023-03-26T02:49:34.472Z,100699.19
2023-03-26T02:51:39.510Z,100700.06
2023-03-26T02:53:44.674Z,100696.41
2023-03-26T02:55:49.436Z,100695.56
2023-03-26T02:57:54.185Z,100699.88
2023-03-26T03:00:02.790Z,100699.03
2023-03-26T03:02:07.717Z,100701.69
2023-03-26T03:04:12.454Z,100698.13
2023-03-26T03:06:19.082Z,100697.25
2023-03-26T03:08:26.513Z,100682.41
2023-03-26T03:10:34.562Z,100692.66
2023-03-26T03:12:39.752Z,100686.59
2023-03-26T03:14:46.946Z,100690.03
2023-03-26T03:16:54.356Z,100680.41
2023-03-26T03:19:03.770Z,100676.88
2023-03-26T03:21:09.884Z,100666.41
2023-03-26T03:23:14.754Z,100665.66
2023-03-26T03:25:22.391Z,100661.28
2023-03-26T03:27:28.577Z,100662.09
2023-03-26T03:29:35.618Z,100656.91
2023-03-26T03:31:41.459Z,100661.28
2023-03-26T03:33:51.486Z,100659.59
2023-03-26T03:35:56.501Z,100656.97
2023-03-26T03:38:02.026Z,100656.19
2023-03-26T03:40:08.867Z,100657.00
2023-03-26T03:42:14.485Z,100654.53
2023-03-26T03:44:19.431Z,100639.78
2023-03-26T03:46:24.315Z,100644.16
2023-03-26T03:48:29.412Z,100633.78
2023-03-26T03:50:36.916Z,100636.44
2023-03-26T03:52:41.695Z,100635.56
2023-03-26T03:54:48.161Z,100640.75
2023-03-26T03:56:52.917Z,100639.84
2023-03-26T03:58:58.554Z,100630.22
2023-03-26T04:01:04.803Z,100628.44
2023-03-26T04:03:10.237Z,100628.50
2023-03-26T04:05:15.995Z,100625.00
2023-03-26T04:07:23.577Z,100624.09
2023-03-26T04:09:28.496Z,100619.75
2023-03-26T04:11:33.404Z,100618.84
2023-03-26T04:13:38.173Z,100610.91
2023-03-26T04:15:43.149Z,100611.75
2023-03-26T04:17:48.051Z,100607.38
2023-03-26T04:19:53.267Z,100601.28
2023-03-26T04:22:02.485Z,100607.38
2023-03-26T04:24:11.071Z,100599.59
2023-03-26T04:26:20.103Z,100590.06
2023-03-26T04:28:31.374Z,100587.44
2023-03-26T04:30:38.502Z,100582.16
2023-03-26T04:32:44.919Z,100573.38
2023-03-26T04:34:50.128Z,100569.06
2023-03-26T04:36:55.925Z,100568.22
2023-03-26T04:39:03.897Z,100570.69
2023-03-26T04:41:13.341Z,100562.78
2023-03-26T04:43:19.626Z,100562.91
2023-03-26T04:45:24.300Z,100563.75
2023-03-26T04:47:31.796Z,100554.13
2023-03-26T04:49:36.708Z,100547.09
2023-03-26T04:51:45.049Z,100546.22
2023-03-26T04:53:57.107Z,100545.25
2023-03-26T04:56:06.355Z,100531.31
2023-03-26T04:58:14.332Z,100539.22
2023-03-26T05:00:20.805Z,100530.34
2023-03-26T05:02:26.298Z,100526.97
2023-03-26T05:04:34.219Z,100526.03
2023-03-26T05:06:39.970Z,100518.19
2023-03-26T05:08:44.805Z,100522.72
2023-03-26T05:10:49.628Z,100519.06
2023-03-26T05:12:54.608Z,100505.00
2023-03-26T05:15:02.171Z,100500.59
2023-03-26T05:17:10.935Z,100500.50
2023-03-26T05:19:16.015Z,100496.34
2023-03-26T05:21:21.108Z,100493.56
2023-03-26T05:23:27.706Z,100491.06
2023-03-26T05:25:32.791Z,100488.63
2023-03-26T05:27:37.476Z,100491.25
2023-03-26T05:29:42.201Z,100489.59
2023-03-26T05:31:49.663Z,100491.34
2023-03-26T05:33:55.312Z,100488.94
2023-03-26T05:36:07.366Z,100488.84
2023-03-26T05:38:12.123Z,100490.53
2023-03-26T05:40:18.363Z,100485.41
2023-03-26T05:42:23.373Z,100476.88
2023-03-26T05:44:28.391Z,100483.63
2023-03-26T05:46:33.126Z,100479.28
2023-03-26T05:48:41.224Z,100483.50
2023-03-26T05:50:46.067Z,100476.59
2023-03-26T05:52:50.797Z,100480.91
2023-03-26T05:54:55.715Z,100480.19
2023-03-26T05:57:00.955Z,100473.28
2023-03-26T05:59:05.708Z,100471.75
2023-03-26T06:01:16.843Z,100477.72
2023-03-26T06:03:23.424Z,100470.09
2023-03-26T06:05:32.886Z,100470.06
2023-03-26T06:07:37.991Z,100468.22
2023-03-26T06:09:43.916Z,100469.88
2023-03-26T06:11:48.949Z,100463.09
2023-03-26T06:13:54.004Z,100468.31
2023-03-26T06:15:58.991Z,100461.19
2023-03-26T06:18:04.003Z,100459.59
2023-03-26T06:20:10.478Z,100454.28
2023-03-26T06:22:19.169Z,100455.97
2023-03-26T06:24:24.115Z,100453.41
2023-03-26T06:26:28.991Z,100451.59
2023-03-26T06:28:33.920Z,100454.44
2023-03-26T06:30:38.999Z,100451.69
2023-03-26T06:32:46.137Z,100457.03
2023-03-26T06:34:51.067Z,100456.75
2023-03-26T06:36:55.926Z,100454.16
2023-03-26T06:39:07.843Z,100455.13
2023-03-26T06:41:12.888Z,100457.06
2023-03-26T06:43:17.620Z,100458.53
2023-03-26T06:45:22.378Z,100456.81
2023-03-26T06:47:27.407Z,100459.38
2023-03-26T06:49:32.266Z,100458.47
2023-03-26T06:51:38.813Z,100451.59
2023-03-26T06:53:44.036Z,100455.97
2023-03-26T06:55:51.458Z,100456.75
2023-03-26T06:57:58.437Z,100452.19
2023-03-26T07:00:04.039Z,100452.94
2023-03-26T07:02:08.809Z,100455.56
2023-03-26T07:04:13.697Z,100453.75
2023-03-26T07:06:20.139Z,100456.31
2023-03-26T07:08:26.423Z,100445.22
2023-03-26T07:10:32.091Z,100444.34
2023-03-26T07:12:43.063Z,100447.66
2023-03-26T07:14:48.304Z,100442.38
2023-03-26T07:16:53.128Z,100445.03
2023-03-26T07:18:57.909Z,100441.56
2023-03-26T07:21:03.538Z,100452.88
2023-03-26T07:23:09.038Z,100448.41
2023-03-26T07:25:16.093Z,100454.59
2023-03-26T07:27:38.958Z,100443.13
2023-03-26T07:29:51.824Z,100451.50
2023-03-26T07:32:03.916Z,100444.59
2023-03-26T07:34:22.306Z,100443.66
2023-03-26T07:36:35.350Z,100439.44
2023-03-26T07:38:52.040Z,100451.53
2023-03-26T07:41:06.205Z,100442.00
2023-03-26T07:43:24.625Z,100444.41
2023-03-26T07:45:38.220Z,100441.28
2023-03-26T07:47:47.237Z,100436.78
2023-03-26T07:49:56.357Z,100438.44
2023-03-26T07:52:03.072Z,100435.81
2023-03-26T07:54:08.909Z,100431.97
2023-03-26T07:56:18.394Z,100438.75
2023-03-26T07:58:42.617Z,100438.59
2023-03-26T08:00:55.285Z,100435.41
2023-03-26T08:03:27.653Z,100431.56
2023-03-26T08:05:36.864Z,100432.44
2023-03-26T08:07:53.025Z,100434.22
2023-03-26T08:10:06.787Z,100435.16
2023-03-26T08:12:21.442Z,100435.16
2023-03-26T08:14:46.396Z,100435.97
2023-03-26T08:16:58.708Z,100430.59
2023-03-26T08:19:12.972Z,100420.84
2023-03-26T08:21:22.555Z,100434.63
2023-03-26T08:23:32.815Z,100434.63
2023-03-26T08:25:42.523Z,100432.00
2023-03-26T08:27:59.168Z,100441.78
2023-03-26T08:30:11.630Z,100445.47
2023-03-26T08:32:22.113Z,100440.75
2023-03-26T08:34:26.999Z,100431.31
2023-03-26T08:36:32.122Z,100431.09
2023-03-26T08:38:36.932Z,100434.75
2023-03-26T08:41:25.821Z,100435.75
2023-03-26T08:43:54.457Z,100439.22
2023-03-26T08:46:43.905Z,100441.44
2023-03-26T08:49:17.712Z,100435.34
2023-03-26T08:51:42.453Z,100433.16
2023-03-26T08:54:18.906Z,100429.91
2023-03-26T08:56:30.021Z,100438.25
2023-03-26T08:59:09.072Z,100438.75
2023-03-26T09:01:38.881Z,100429.28
2023-03-26T09:04:08.693Z,100429.72
2023-03-26T09:06:30.326Z,100435.53
2023-03-26T09:09:19.266Z,100438.81
2023-03-26T09:11:57.268Z,100430.81
2023-03-26T09:14:24.557Z,100439.78
2023-03-26T09:16:47.131Z,100433.84
2023-03-26T09:19:24.341Z,100444.81
2023-03-26T09:22:01.849Z,100441.84
2023-03-26T09:24:37.767Z,100438.25
2023-03-26T09:26:51.588Z,100439.41
2023-03-26T09:29:38.522Z,100441.00
2023-03-26T09:32:34.076Z,100442.50
2023-03-26T09:35:01.931Z,100445.09
2023-03-26T09:37:21.478Z,100450.53
2023-03-26T09:39:49.194Z,100458.69
2023-03-26T09:42:07.288Z,100458.69
2023-03-26T09:44:50.826Z,100464.59
2023-03-26T09:47:25.442Z,100461.63
2023-03-26T09:49:45.788Z,100451.41
2023-03-26T09:52:41.548Z,100463.31
2023-03-26T09:55:20.438Z,100465.69
2023-03-26T09:57:37.308Z,100465.13
2023-03-26T10:00:13.462Z,100485.53
2023-03-26T10:02:45.949Z,100473.75
2023-03-26T10:05:11.901Z,100484.06
2023-03-26T10:07:39.073Z,100482.25
2023-03-26T10:09:53.979Z,100476.78
2023-03-26T10:12:09.724Z,100486.16
2023-03-26T10:14:23.724Z,100488.91
2023-03-26T10:16:37.267Z,100485.56
2023-03-26T10:18:56.751Z,100495.81
2023-03-26T10:21:09.141Z,100495.19
2023-03-26T10:23:40.315Z,100491.50
2023-03-26T10:26:07.348Z,100503.78
2023-03-26T10:28:31.802Z,100501.31
2023-03-26T10:31:12.841Z,100505.28
2023-03-26T10:33:34.641Z,100500.94
2023-03-26T10:35:56.288Z,100499.69
2023-03-26T10:38:16.870Z,100505.19
2023-03-26T10:40:28.693Z,100512.03
2023-03-26T10:42:58.259Z,100517.13
2023-03-26T10:45:31.329Z,100523.16
2023-03-26T10:47:58.658Z,100516.47
2023-03-26T10:50:28.347Z,100524.28
2023-03-26T10:52:37.895Z,100523.59
2023-03-26T10:54:54.486Z,100532.19
2023-03-26T10:57:07.429Z,100539.03
2023-03-26T10:59:16.407Z,100532.81
2023-03-26T11:01:35.098Z,100542.59
2023-03-26T11:03:52.278Z,100538.09
2023-03-26T11:06:04.489Z,100542.28
2023-03-26T11:08:16.669Z,100538.84
2023-03-26T11:10:28.303Z,100548.47
2023-03-26T11:12:46.385Z,100550.59
2023-03-26T11:15:00.535Z,100555.72
2023-03-26T11:17:40.366Z,100553.28
2023-03-26T11:19:53.241Z,100563.03
2023-03-26T11:22:04.244Z,100565.66
2023-03-26T11:24:40.039Z,100558.16
2023-03-26T11:26:56.046Z,100561.81
2023-03-26T11:29:31.645Z,100579.91
2023-03-26T11:31:55.594Z,100583.44
2023-03-26T11:34:06.552Z,100580.94
2023-03-26T11:36:15.714Z,100574.41
2023-03-26T11:38:27.013Z,100581.44
2023-03-26T11:40:37.539Z,100586.56
2023-03-26T11:42:46.597Z,100576.81
2023-03-26T11:44:58.170Z,100576.16
2023-03-26T11:47:10.316Z,100603.16
2023-03-26T11:49:19.613Z,100597.34
2023-03-26T11:51:31.064Z,100601.47
2023-03-26T11:53:38.933Z,100603.19
2023-03-26T11:55:47.716Z,100605.91
2023-03-26T11:57:58.469Z,100608.75
2023-03-26T12:00:17.024Z,100615.56
2023-03-26T12:02:29.698Z,100617.28
2023-03-26T12:04:40.875Z,100619.94
2023-03-26T12:06:56.704Z,100623.34
2023-03-26T12:09:02.000Z,100631.28
2023-03-26T12:11:11.841Z,100629.53
2023-03-26T12:13:36.975Z,100632.38
2023-03-26T12:15:53.003Z,100634.97
2023-03-26T12:17:59.882Z,100628.72
2023-03-26T12:20:45.231Z,100632.19
2023-03-26T12:22:54.291Z,100639.88
2023-03-26T12:25:18.430Z,100642.06
2023-03-26T12:27:28.688Z,100646.13
2023-03-26T12:29:38.253Z,100633.41
2023-03-26T12:31:55.685Z,100636.38
2023-03-26T12:34:10.460Z,100644.69
2023-03-26T12:36:29.746Z,100643.94
2023-03-26T12:38:37.524Z,100639.53
2023-03-26T12:40:43.614Z,100648.72
2023-03-26T12:44:54.325Z,100647.50
2023-03-26T12:45:24.281Z,100659.09
2023-03-26T12:48:01.143Z,100667.00
2023-03-26T12:50:02.538Z,100668.09
2023-03-26T12:52:20.867Z,100670.59
2023-03-26T12:54:43.744Z,100668.78
2023-03-26T12:57:12.452Z,100670.75
2023-03-26T12:59:33.400Z,100676.25
2023-03-26T13:01:50.718Z,100672.09
2023-03-26T13:04:18.542Z,100679.81
2023-03-26T13:06:59.392Z,100680.47
2023-03-26T13:09:32.170Z,100678.13
2023-03-26T13:11:50.187Z,100684.94
2023-03-26T13:14:10.419Z,100694.19
2023-03-26T13:16:25.448Z,100691.91
2023-03-26T13:18:50.889Z,100690.41
2023-03-26T13:21:06.228Z,100690.31
2023-03-26T13:23:19.997Z,100692.34
2023-03-26T13:25:36.730Z,100696.31
2023-03-26T13:27:55.624Z,100698.44
2023-03-26T13:30:09.217Z,100693.53
2023-03-26T13:32:22.597Z,100696.03
2023-03-26T13:34:38.363Z,100703.13
2023-03-26T13:36:58.100Z,100701.59
2023-03-26T13:39:32.592Z,100706.88
2023-03-26T13:41:50.719Z,100705.56
2023-03-26T13:44:09.004Z,100707.56
2023-03-26T13:46:27.674Z,100706.38
2023-03-26T13:48:39.804Z,100713.16
2023-03-26T13:50:47.730Z,100715.66
2023-03-26T13:52:59.115Z,100728.59
2023-03-26T13:55:20.800Z,100720.16
2023-03-26T13:57:32.125Z,100715.44
2023-03-26T13:59:41.919Z,100721.53
2023-03-26T14:01:53.683Z,100727.16
2023-03-26T14:04:04.358Z,100727.16
2023-03-26T14:06:15.715Z,100727.28
2023-03-26T14:08:28.977Z,100730.66
2023-03-26T14:10:40.302Z,100737.28
2023-03-26T14:12:55.480Z,100741.56
2023-03-26T14:15:04.467Z,100745.03
2023-03-26T14:17:19.106Z,100738.06
2023-03-26T14:19:52.688Z,100751.69
2023-03-26T14:22:06.970Z,100752.28
2023-03-26T14:24:37.846Z,100756.34
2023-03-26T14:27:05.590Z,100759.47
2023-03-26T14:29:29.729Z,100756.34
2023-03-26T14:31:41.999Z,100760.47
2023-03-26T14:34:25.116Z,100770.53
2023-03-26T14:36:49.585Z,100780.53
2023-03-26T14:39:29.575Z,100779.41
2023-03-26T14:41:46.099Z,100776.44
2023-03-26T14:44:13.234Z,100780.94
2023-03-26T14:46:30.401Z,100786.16
2023-03-26T14:49:16.406Z,100793.75
2023-03-26T14:51:35.396Z,100798.00
2023-03-26T14:53:44.586Z,100801.84
2023-03-26T14:56:21.263Z,100810.16
2023-03-26T14:59:01.947Z,100810.72
2023-03-26T15:01:32.132Z,100826.03
2023-03-26T15:04:12.918Z,100829.34
2023-03-26T15:07:10.483Z,100833.09
2023-03-26T15:09:46.409Z,100852.19
2023-03-26T15:12:12.535Z,100849.75
2023-03-26T15:14:44.398Z,100854.91
2023-03-26T15:17:29.862Z,100858.78
2023-03-26T15:19:58.914Z,100857.97
2023-03-26T15:22:41.015Z,100861.53
2023-03-26T15:25:21.363Z,100868.88
2023-03-26T15:27:50.169Z,100875.31
2023-03-26T15:30:15.310Z,100880.56
2023-03-26T15:32:52.957Z,100893.28
2023-03-26T15:35:30.500Z,100889.59
2023-03-26T15:38:14.923Z,100897.03
2023-03-26T15:40:47.105Z,100896.25
2023-03-26T15:43:03.425Z,100900.47
2023-03-26T15:45:37.144Z,100911.25
2023-03-26T15:48:01.787Z,100915.44
2023-03-26T15:50:21.925Z,100918.28
2023-03-26T15:52:33.190Z,100925.41
2023-03-26T15:54:48.518Z,100930.19
2023-03-26T15:57:07.483Z,100936.50
2023-03-26T15:59:26.784Z,100940.34
2023-03-26T16:01:46.296Z,100942.25
2023-03-26T16:04:06.160Z,100948.44
2023-03-26T16:06:32.094Z,100954.47
2023-03-26T16:08:47.307Z,100949.94
2023-03-26T16:10:56.190Z,100956.09
2023-03-26T16:13:36.961Z,100967.56
2023-03-26T16:15:42.939Z,100972.25
2023-03-26T16:18:22.949Z,100977.69
2023-03-26T16:20:33.604Z,100981.19
2023-03-26T16:22:44.007Z,100988.06
2023-03-26T16:25:29.068Z,100992.53
2023-03-26T16:27:37.077Z,100996.16
2023-03-26T16:30:20.604Z,101004.78
2023-03-26T16:32:28.975Z,101010.31
2023-03-26T16:34:42.864Z,101019.66
2023-03-26T16:36:51.863Z,101028.47
2023-03-26T16:39:11.865Z,101028.66
2023-03-26T16:41:22.221Z,101038.25
2023-03-26T16:44:06.238Z,101054.13
2023-03-26T16:46:16.491Z,101061.16
2023-03-26T16:48:28.834Z,101045.81
2023-03-26T16:50:46.922Z,101051.13
2023-03-26T16:53:02.257Z,101053.91
2023-03-26T16:55:17.104Z,101070.63
2023-03-26T16:57:28.959Z,101066.38
2023-03-26T17:00:05.621Z,101079.13
2023-03-26T17:02:26.824Z,101090.66
2023-03-26T17:04:35.035Z,101084.69
2023-03-26T17:07:01.990Z,101087.47
2023-03-26T17:09:24.861Z,101101.47
2023-03-26T17:11:40.291Z,101103.06
2023-03-26T17:13:53.282Z,101107.34
2023-03-26T17:16:07.926Z,101106.75
2023-03-26T17:18:40.225Z,101123.19
2023-03-26T17:20:56.076Z,101118.97
2023-03-26T17:23:12.550Z,101128.66
2023-03-26T17:25:34.003Z,101133.91
2023-03-26T17:27:47.262Z,101132.06
2023-03-26T17:30:26.267Z,101145.41
2023-03-26T17:32:56.306Z,101149.88
2023-03-26T17:35:07.065Z,101151.78
2023-03-26T17:37:28.843Z,101164.00
2023-03-26T17:40:12.459Z,101168.38
2023-03-26T17:42:33.103Z,101170.91
2023-03-26T17:44:48.072Z,101170.00
2023-03-26T17:46:54.792Z,101179.78
2023-03-26T17:49:06.102Z,101181.50
2023-03-26T17:51:30.258Z,101186.78
2023-03-26T17:53:43.781Z,101191.09
2023-03-26T17:55:51.437Z,101201.53
2023-03-26T17:58:01.314Z,101207.75
2023-03-26T18:00:09.107Z,101205.06
2023-03-26T18:02:18.880Z,101226.09
2023-03-26T18:04:34.375Z,101233.06
2023-03-26T18:06:54.228Z,101228.72
2023-03-26T18:09:13.931Z,101231.44
2023-03-26T18:12:00.363Z,101248.84
2023-03-26T18:14:35.514Z,101248.84
2023-03-26T18:16:46.813Z,101245.59
2023-03-26T18:18:54.540Z,101257.75
2023-03-26T18:21:03.684Z,101261.31
2023-03-26T18:23:23.484Z,101265.75
2023-03-26T18:25:34.346Z,101275.34
2023-03-26T18:27:42.024Z,101274.41
2023-03-26T18:29:48.978Z,101284.13
2023-03-26T18:32:00.712Z,101291.06
2023-03-26T18:34:14.995Z,101293.69
2023-03-26T18:36:21.545Z,101307.66
2023-03-26T18:38:35.825Z,101309.53
2023-03-26T18:40:45.418Z,101319.16
2023-03-26T18:42:52.827Z,101305.31
2023-03-26T18:45:02.071Z,101322.78
2023-03-26T18:47:13.721Z,101327.94
2023-03-26T18:49:19.872Z,101323.69
2023-03-26T18:51:25.533Z,101332.31
2023-03-26T18:53:32.946Z,101337.53
2023-03-26T18:55:40.279Z,101341.22
2023-03-26T18:57:49.668Z,101343.84
2023-03-26T18:59:56.847Z,101348.25
2023-03-26T19:02:04.517Z,101354.41
2023-03-26T19:04:17.463Z,101358.84
2023-03-26T19:06:23.494Z,101358.84
2023-03-26T19:08:30.607Z,101370.19
2023-03-26T19:10:36.837Z,101369.41
2023-03-26T19:12:41.826Z,101383.38
2023-03-26T19:15:01.196Z,101380.72
2023-03-26T19:17:09.031Z,101384.19
2023-03-26T19:19:23.274Z,101387.59
2023-03-26T19:21:28.606Z,101392.09
2023-03-26T19:23:35.978Z,101387.72
2023-03-26T19:25:46.335Z,101396.41
2023-03-26T19:27:52.015Z,101400.75
2023-03-26T19:29:57.242Z,101404.28
2023-03-26T19:32:06.535Z,101406.88
2023-03-26T19:34:28.094Z,101407.88
2023-03-26T19:36:37.191Z,101404.41
2023-03-26T19:38:47.371Z,101422.66
2023-03-26T19:40:53.614Z,101417.53
2023-03-26T19:43:01.644Z,101425.38
2023-03-26T19:45:17.274Z,101428.88
2023-03-26T19:47:35.222Z,101430.63
2023-03-26T19:49:56.909Z,101437.59
2023-03-26T19:52:16.475Z,101434.16
2023-03-26T19:54:21.439Z,101435.91
2023-03-26T19:56:27.057Z,101436.75
2023-03-26T19:58:32.134Z,101445.41
2023-03-26T20:00:37.040Z,101440.22
2023-03-26T20:02:42.697Z,101446.34
2023-03-26T20:04:47.939Z,101451.59
2023-03-26T20:06:55.366Z,101454.16
2023-03-26T20:09:01.285Z,101453.34
2023-03-26T20:11:06.408Z,101468.13
2023-03-26T20:13:17.486Z,101473.28
2023-03-26T20:15:26.231Z,101467.25
2023-03-26T20:17:31.280Z,101480.25
2023-03-26T20:19:39.305Z,101489.81
2023-03-26T20:21:47.296Z,101498.50
2023-03-26T20:23:56.053Z,101501.13
2023-03-26T20:26:00.906Z,101502.03
2023-03-26T20:28:06.111Z,101508.03
2023-03-26T20:30:14.054Z,101508.94
2023-03-26T20:32:25.709Z,101513.31
2023-03-26T20:34:32.253Z,101512.44
2023-03-26T20:36:37.153Z,101521.09
2023-03-26T20:38:44.003Z,101528.03
2023-03-26T20:40:52.291Z,101530.63
2023-03-26T20:42:57.042Z,101523.72
2023-03-26T20:45:02.133Z,101524.59
2023-03-26T20:47:07.673Z,101534.13
2023-03-26T20:49:13.190Z,101521.94
2023-03-26T20:51:20.095Z,101528.84
2023-03-26T20:53:25.150Z,101538.41
2023-03-26T20:55:30.087Z,101543.59
2023-03-26T20:57:37.413Z,101548.78
2023-03-26T20:59:44.775Z,101547.91
2023-03-26T21:01:50.129Z,101560.00
2023-03-26T21:03:54.909Z,101558.25
2023-03-26T21:06:03.408Z,101565.22
2023-03-26T21:08:09.028Z,101561.72
2023-03-26T21:10:20.754Z,101573.88
2023-03-26T21:12:39.938Z,101579.97
2023-03-26T21:14:48.088Z,101575.56
2023-03-26T21:16:53.795Z,101576.44
2023-03-26T21:18:59.603Z,101584.28
2023-03-26T21:21:28.239Z,101589.50
2023-03-26T21:23:39.301Z,101586.88
2023-03-26T21:25:56.723Z,101596.44
2023-03-26T21:28:12.098Z,101595.53
2023-03-26T21:30:20.351Z,101608.56
2023-03-26T21:32:26.466Z,101601.63
2023-03-26T21:34:33.584Z,101595.53
2023-03-26T21:36:40.392Z,101601.66
2023-03-26T21:38:46.139Z,101606.94
2023-03-26T21:40:58.312Z,101608.66
2023-03-26T21:43:04.193Z,101607.75
2023-03-26T21:45:10.712Z,101616.44
2023-03-26T21:47:21.641Z,101627.72
2023-03-26T21:49:27.040Z,101623.38
2023-03-26T21:51:34.243Z,101634.66
2023-03-26T21:53:39.833Z,101624.25
2023-03-26T21:55:54.130Z,101639.88
2023-03-26T21:58:19.640Z,101645.06
2023-03-26T22:00:33.602Z,101650.25
2023-03-26T22:02:57.651Z,101662.44
2023-03-26T22:05:07.032Z,101659.03
2023-03-26T22:07:16.576Z,101668.56
2023-03-26T22:09:30.078Z,101672.06
2023-03-26T22:11:41.676Z,101678.13
2023-03-26T22:13:46.950Z,101671.22
2023-03-26T22:15:51.731Z,101676.44
2023-03-26T22:18:03.435Z,101674.69
2023-03-26T22:20:13.659Z,101676.44
2023-03-26T22:22:18.691Z,101676.44
2023-03-26T22:24:23.669Z,101675.56
2023-03-26T22:26:28.612Z,101689.44
2023-03-26T22:28:33.598Z,101686.84
2023-03-26T22:30:38.929Z,101686.88
2023-03-26T22:32:46.145Z,101685.16
2023-03-26T22:34:54.014Z,101697.31
2023-03-26T22:36:59.310Z,101701.63
2023-03-26T22:39:04.672Z,101703.38
2023-03-26T22:41:14.089Z,101699.91
2023-03-26T22:43:19.152Z,101702.50
2023-03-26T22:45:24.015Z,101703.38
2023-03-26T22:47:30.769Z,101713.78
2023-03-26T22:49:35.979Z,101725.06
2023-03-26T22:51:45.983Z,101726.78
2023-03-26T22:53:51.014Z,101730.28
2023-03-26T22:55:55.840Z,101736.31
2023-03-26T22:58:00.763Z,101733.75
2023-03-26T23:00:14.978Z,101736.31
2023-03-26T23:02:19.955Z,101741.53
2023-03-26T23:04:32.342Z,101747.59
2023-03-26T23:06:37.385Z,101760.59
2023-03-26T23:08:48.231Z,101771.03
2023-03-26T23:10:55.869Z,101776.22
2023-03-26T23:13:01.085Z,101778.81
2023-03-26T23:15:06.553Z,101778.84
2023-03-26T23:17:14.787Z,101772.75
2023-03-26T23:19:20.116Z,101778.81
2023-03-26T23:21:25.824Z,101783.13
2023-03-26T23:23:32.989Z,101784.88
2023-03-26T23:25:41.021Z,101783.97
2023-03-26T23:27:46.019Z,101779.66
2023-03-26T23:29:50.724Z,101785.69
2023-03-26T23:31:56.352Z,101789.13
2023-03-26T23:34:02.558Z,101797.75
2023-03-26T23:36:10.272Z,101789.94
2023-03-26T23:38:16.051Z,101797.69
2023-03-26T23:40:22.076Z,101800.31
2023-03-26T23:42:29.993Z,101798.53
2023-03-26T23:44:35.184Z,101805.47
2023-03-26T23:46:43.052Z,101811.53
2023-03-26T23:48:51.194Z,101815.88
2023-03-26T23:51:02.832Z,101816.78
2023-03-26T23:53:10.177Z,101822.84
2023-03-26T23:55:17.455Z,101823.72
2023-03-26T23:57:22.559Z,101842.75
2023-03-26T23:59:30.148Z,101866.22
